Queen Of Nanaimo — VCNX — position and weather

sailwx.info

Track history (hours):
 
Tides and Currents Weather Stations Pressure Air Temp Water Temp Dewpoint Dewpoint Depression Visibility Wind Speed Wind Dir Waves Ship Positions

Queen Of Nanaimo

Last reported at 2014-Dec-21 19:33 UTC. Time now 2014-Dec-21 20:05 UTC.
Position N 48°58' W 123°12'.

Length 130 m; draft 4 m.

Type: Ship. MMSI: 316001254.

Date/timePositionNaut miles runAvg speedWind from/ knotsBaromVisibWave heightAir tempDewpointWater temp
2014-Dec-21 19:33N 48°58' W 123°12'4 3.8
2014-Dec-21 18:33N 49°00' W 123°08'1010.2
2014-Dec-21 17:33N 48°53' W 123°18'2 2.1
2014-Dec-21 16:27N 48°51' W 123°20'5 0.8
2014-Dec-21 10:32N 48°51' W 123°27'5 1.1
2014-Dec-21 06:32N 48°51' W 123°20'3 3.4
2014-Dec-21 05:33N 48°54' W 123°17'9 9.1
2014-Dec-21 04:33N 49°00' W 123°08'0 0.0
2014-Dec-21 03:33N 49°00' W 123°08'0 0.3
2014-Dec-21 02:33N 49°00' W 123°08'1010.4
2014-Dec-21 01:34N 48°53' W 123°19'4 4.2
2014-Dec-21 00:33N 48°48' W 123°20'4 1.3
2014-Dec-20 21:32N 48°50' W 123°25'1212.3
2014-Dec-20 20:33N 48°59' W 123°11'1 0.8
2014-Dec-20 19:33N 48°58' W 123°11'9 9.2
2014-Dec-20 18:32N 48°51' W 123°20'2 2.0
2014-Dec-20 17:33N 48°53' W 123°19'1110.8
2014-Dec-20 16:34N 49°00' W 123°08'6 6.3
2014-Dec-20 15:33N 48°55' W 123°13'9 1.0
2014-Dec-20 06:05N 48°50' W 123°25'5 8.9
2014-Dec-20 05:33N 48°48' W 123°19'4 4.4
2014-Dec-20 04:34N 48°52' W 123°18'9 8.6
2014-Dec-20 03:34N 48°59' W 123°10'2 2.0
2014-Dec-20 02:33N 49°00' W 123°08'1110.6
2014-Dec-20 01:33N 48°53' W 123°19'2 1.8
2014-Dec-20 00:29N 48°51' W 123°20'4 3.6
2014-Dec-19 23:25N 48°51' W 123°25'5 1.7
2014-Dec-19 20:27N 48°48' W 123°19'4 3.8
2014-Dec-19 19:31N 48°52' W 123°19'7 7.7
2014-Dec-19 18:33N 48°58' W 123°13'4 4.3
2014-Dec-19 17:34N 49°00' W 123°08'1010.2
2014-Dec-19 16:34N 48°53' W 123°18'2 2.2
2014-Dec-19 15:32N 48°51' W 123°20'4 3.6
2014-Dec-19 14:29N 48°51' W 123°25'0 0.0
2014-Dec-19 06:06N 48°50' W 123°25'5 7.8
2014-Dec-19 05:30N 48°48' W 123°19'5 5.0
2014-Dec-19 04:33N 48°53' W 123°18'9 9.1
2014-Dec-19 03:33N 48°60' W 123°09'1 1.2
2014-Dec-19 02:33N 49°00' W 123°08'1110.5
2014-Dec-19 01:33N 48°53' W 123°19'2 1.9
2014-Dec-19 00:30N 48°51' W 123°20'5 4.0
2014-Dec-18 23:21N 48°51' W 123°26'6 2.1
2014-Dec-18 20:32N 48°48' W 123°19'4 3.5
2014-Dec-18 19:30N 48°52' W 123°19'7 7.9
2014-Dec-18 18:33N 48°58' W 123°13'4 4.2
2014-Dec-18 17:33N 49°00' W 123°08'1110.6
2014-Dec-18 16:33N 48°53' W 123°19'3 3.0
2014-Dec-18 15:28N 48°49' W 123°20'3 0.4
2014-Dec-18 06:04N 48°50' W 123°25'4 6.5
2014-Dec-18 05:23N 48°48' W 123°20'4 5.4
2014-Dec-18 04:34N 48°52' W 123°18'9 8.8
2014-Dec-18 03:33N 48°59' W 123°10'2 1.7
2014-Dec-18 02:33N 49°00' W 123°08'1110.5
2014-Dec-18 01:33N 48°53' W 123°19'2 1.8
2014-Dec-18 00:27N 48°51' W 123°20'4 3.7
2014-Dec-17 23:29N 48°50' W 123°25'4 1.5
2014-Dec-17 20:33N 48°48' W 123°19'4 3.9
2014-Dec-17 19:33N 48°52' W 123°20'8 8.1
2014-Dec-17 18:33N 48°58' W 123°13'4 4.0
2014-Dec-17 17:34N 49°00' W 123°08'1010.1
2014-Dec-17 16:34N 48°53' W 123°18'2 2.3
2014-Dec-17 15:31N 48°51' W 123°20'4 3.7
2014-Dec-17 14:33N 48°50' W 123°25'0 0.0
2014-Dec-17 06:06N 48°50' W 123°25'5 7.4
2014-Dec-17 05:27N 48°48' W 123°19'5 5.3
2014-Dec-17 04:34N 48°53' W 123°19'8 8.4
2014-Dec-17 03:33N 48°59' W 123°10'2 2.1
2014-Dec-17 02:33N 49°00' W 123°08'1110.6
2014-Dec-17 01:33N 48°53' W 123°19'2 1.8
2014-Dec-17 00:30N 48°51' W 123°20'3 3.3
2014-Dec-16 23:27N 48°50' W 123°25'4 1.4
2014-Dec-16 20:32N 48°48' W 123°19'4 3.7
2014-Dec-16 19:31N 48°52' W 123°20'8 8.0
2014-Dec-16 18:33N 48°58' W 123°13'4 4.4
2014-Dec-16 17:33N 49°00' W 123°08'1010.4
2014-Dec-16 16:33N 48°53' W 123°18'3 2.6
2014-Dec-16 15:29N 48°50' W 123°21'3 3.0
2014-Dec-16 14:30N 48°50' W 123°25'0 0.0
2014-Dec-16 06:05N 48°50' W 123°25'4 6.5
2014-Dec-16 05:24N 48°48' W 123°19'4 4.5
2014-Dec-16 04:33N 48°52' W 123°19'9 9.2
2014-Dec-16 03:32N 48°59' W 123°10'2 1.9
2014-Dec-16 02:33N 49°00' W 123°08'1110.5
2014-Dec-16 01:32N 48°53' W 123°19'4 2.8
2014-Dec-16 00:16N 48°49' W 123°20'1 0.4
2014-Dec-15 20:33N 48°48' W 123°19'4 3.6
2014-Dec-15 19:30N 48°52' W 123°21'8 8.2
2014-Dec-15 18:33N 48°57' W 123°13'5 4.6
2014-Dec-15 17:33N 49°00' W 123°08'10 9.9
2014-Dec-15 16:34N 48°53' W 123°18'3 3.1
2014-Dec-15 15:27N 48°50' W 123°20'3 3.3
2014-Dec-15 14:31N 48°50' W 123°25'3 0.4
2014-Dec-15 06:30N 48°52' W 123°20'1212.5
2014-Dec-15 05:33N 49°00' W 123°08'9 9.2
2014-Dec-15 04:34N 48°53' W 123°17'2 1.5
2014-Dec-15 03:33N 48°52' W 123°18'1110.7
2014-Dec-15 02:33N 49°00' W 123°08'4 4.4
2014-Dec-15 01:33N 48°57' W 123°12'8 7.7
2014-Dec-15 00:33N 48°52' W 123°20'4 1.2
2014-Dec-14 21:32N 48°48' W 123°19'4 3.8
2014-Dec-14 20:32N 48°51' W 123°21'8 8.7
2014-Dec-14 19:33N 48°58' W 123°12'4 3.9
2014-Dec-14 18:33N 49°00' W 123°08'10 9.7
2014-Dec-14 17:34N 48°53' W 123°18'3 2.5
2014-Dec-14 16:24N 48°51' W 123°20'3 3.6
2014-Dec-14 15:30N 48°50' W 123°25'3 0.3
2014-Dec-14 06:29N 48°51' W 123°21'3 3.6
2014-Dec-14 05:33N 48°53' W 123°17'9 9.5
2014-Dec-14 04:34N 49°00' W 123°08'0 0.0
2014-Dec-14 03:25N 49°00' W 123°08'0 0.0
2014-Dec-14 02:34N 49°00' W 123°08'1110.6
2014-Dec-14 01:33N 48°53' W 123°19'4 4.1
2014-Dec-14 00:32N 48°48' W 123°20'4 1.3
2014-Dec-13 21:26N 48°51' W 123°25'1213.9
2014-Dec-13 20:33N 48°58' W 123°11'0 0.2
2014-Dec-13 19:33N 48°58' W 123°11'9 8.9
2014-Dec-13 18:32N 48°51' W 123°20'2 2.0
2014-Dec-13 17:33N 48°53' W 123°19'1110.6
2014-Dec-13 16:33N 49°00' W 123°08'4 4.3
2014-Dec-13 15:33N 48°57' W 123°12'11 1.2
2014-Dec-13 06:08N 48°50' W 123°25'5 6.3
2014-Dec-13 05:25N 48°48' W 123°20'5 5.6
2014-Dec-13 04:34N 48°53' W 123°19'9 9.4
2014-Dec-13 03:33N 48°60' W 123°09'1 0.8
2014-Dec-13 02:34N 49°00' W 123°08'1010.3
2014-Dec-13 01:33N 48°53' W 123°19'2 1.8
2014-Dec-13 00:28N 48°51' W 123°20'3 3.7
2014-Dec-12 23:32N 48°50' W 123°25'4 1.5
2014-Dec-12 20:30N 48°48' W 123°19'4 4.0
2014-Dec-12 19:33N 48°52' W 123°19'10 9.5
2014-Dec-12 18:33N 48°59' W 123°09'2 1.6
2014-Dec-12 17:33N 49°00' W 123°08'10 9.9
2014-Dec-12 16:33N 48°53' W 123°18'3 2.3
2014-Dec-12 15:28N 48°51' W 123°20'4 3.7
2014-Dec-12 14:27N 48°50' W 123°25'0 0.0
2014-Dec-12 06:23N 48°50' W 123°25'3 3.6
2014-Dec-12 05:31N 48°50' W 123°20'3 2.7
2014-Dec-12 04:34N 48°53' W 123°19'9 9.3
2014-Dec-12 03:33N 48°60' W 123°10'1 1.3
2014-Dec-12 02:34N 49°00' W 123°08'1110.5
2014-Dec-12 01:33N 48°53' W 123°19'3 2.6
2014-Dec-12 00:31N 48°50' W 123°20'2 0.6
2014-Dec-11 20:32N 48°48' W 123°19'  
Track history (hours):
 
Tides and Currents Weather Stations Pressure Air Temp Water Temp Dewpoint Dewpoint Depression Visibility Wind Speed Wind Dir Waves Ship Positions

Queen Of Nanaimo

Last reported at 2014-Dec-21 19:33 UTC. Time now 2014-Dec-21 20:05 UTC.
Position N 48°58' W 123°12'.

Length 130 m; draft 4 m.

Type: Ship. MMSI: 316001254.

Date/timePositionNaut miles runAvg speedWind from/ knotsBaromVisibWave heightAir tempDewpointWater temp
2014-Dec-21 19:33N 48°58' W 123°12'4 3.8
2014-Dec-21 18:33N 49°00' W 123°08'1010.2
2014-Dec-21 17:33N 48°53' W 123°18'2 2.1
2014-Dec-21 16:27N 48°51' W 123°20'5 0.8
2014-Dec-21 10:32N 48°51' W 123°27'5 1.1
2014-Dec-21 06:32N 48°51' W 123°20'3 3.4
2014-Dec-21 05:33N 48°54' W 123°17'9 9.1
2014-Dec-21 04:33N 49°00' W 123°08'0 0.0
2014-Dec-21 03:33N 49°00' W 123°08'0 0.3
2014-Dec-21 02:33N 49°00' W 123°08'1010.4
2014-Dec-21 01:34N 48°53' W 123°19'4 4.2
2014-Dec-21 00:33N 48°48' W 123°20'4 1.3
2014-Dec-20 21:32N 48°50' W 123°25'1212.3
2014-Dec-20 20:33N 48°59' W 123°11'1 0.8
2014-Dec-20 19:33N 48°58' W 123°11'9 9.2
2014-Dec-20 18:32N 48°51' W 123°20'2 2.0
2014-Dec-20 17:33N 48°53' W 123°19'1110.8
2014-Dec-20 16:34N 49°00' W 123°08'6 6.3
2014-Dec-20 15:33N 48°55' W 123°13'9 1.0
2014-Dec-20 06:05N 48°50' W 123°25'5 8.9
2014-Dec-20 05:33N 48°48' W 123°19'4 4.4
2014-Dec-20 04:34N 48°52' W 123°18'9 8.6
2014-Dec-20 03:34N 48°59' W 123°10'2 2.0
2014-Dec-20 02:33N 49°00' W 123°08'1110.6
2014-Dec-20 01:33N 48°53' W 123°19'2 1.8
2014-Dec-20 00:29N 48°51' W 123°20'4 3.6
2014-Dec-19 23:25N 48°51' W 123°25'5 1.7
2014-Dec-19 20:27N 48°48' W 123°19'4 3.8
2014-Dec-19 19:31N 48°52' W 123°19'7 7.7
2014-Dec-19 18:33N 48°58' W 123°13'4 4.3
2014-Dec-19 17:34N 49°00' W 123°08'1010.2
2014-Dec-19 16:34N 48°53' W 123°18'2 2.2
2014-Dec-19 15:32N 48°51' W 123°20'4 3.6
2014-Dec-19 14:29N 48°51' W 123°25'0 0.0
2014-Dec-19 06:06N 48°50' W 123°25'5 7.8
2014-Dec-19 05:30N 48°48' W 123°19'5 5.0
2014-Dec-19 04:33N 48°53' W 123°18'9 9.1
2014-Dec-19 03:33N 48°60' W 123°09'1 1.2
2014-Dec-19 02:33N 49°00' W 123°08'1110.5
2014-Dec-19 01:33N 48°53' W 123°19'2 1.9
2014-Dec-19 00:30N 48°51' W 123°20'5 4.0
2014-Dec-18 23:21N 48°51' W 123°26'6 2.1
2014-Dec-18 20:32N 48°48' W 123°19'4 3.5
2014-Dec-18 19:30N 48°52' W 123°19'7 7.9
2014-Dec-18 18:33N 48°58' W 123°13'4 4.2
2014-Dec-18 17:33N 49°00' W 123°08'1110.6
2014-Dec-18 16:33N 48°53' W 123°19'3 3.0
2014-Dec-18 15:28N 48°49' W 123°20'3 0.4
2014-Dec-18 06:04N 48°50' W 123°25'4 6.5
2014-Dec-18 05:23N 48°48' W 123°20'4 5.4
2014-Dec-18 04:34N 48°52' W 123°18'9 8.8
2014-Dec-18 03:33N 48°59' W 123°10'2 1.7
2014-Dec-18 02:33N 49°00' W 123°08'1110.5
2014-Dec-18 01:33N 48°53' W 123°19'2 1.8
2014-Dec-18 00:27N 48°51' W 123°20'4 3.7
2014-Dec-17 23:29N 48°50' W 123°25'4 1.5
2014-Dec-17 20:33N 48°48' W 123°19'4 3.9
2014-Dec-17 19:33N 48°52' W 123°20'8 8.1
2014-Dec-17 18:33N 48°58' W 123°13'4 4.0
2014-Dec-17 17:34N 49°00' W 123°08'1010.1
2014-Dec-17 16:34N 48°53' W 123°18'2 2.3
2014-Dec-17 15:31N 48°51' W 123°20'4 3.7
2014-Dec-17 14:33N 48°50' W 123°25'0 0.0
2014-Dec-17 06:06N 48°50' W 123°25'5 7.4
2014-Dec-17 05:27N 48°48' W 123°19'5 5.3
2014-Dec-17 04:34N 48°53' W 123°19'8 8.4
2014-Dec-17 03:33N 48°59' W 123°10'2 2.1
2014-Dec-17 02:33N 49°00' W 123°08'1110.6
2014-Dec-17 01:33N 48°53' W 123°19'2 1.8
2014-Dec-17 00:30N 48°51' W 123°20'3 3.3
2014-Dec-16 23:27N 48°50' W 123°25'4 1.4
2014-Dec-16 20:32N 48°48' W 123°19'4 3.7
2014-Dec-16 19:31N 48°52' W 123°20'8 8.0
2014-Dec-16 18:33N 48°58' W 123°13'4 4.4
2014-Dec-16 17:33N 49°00' W 123°08'1010.4
2014-Dec-16 16:33N 48°53' W 123°18'3 2.6
2014-Dec-16 15:29N 48°50' W 123°21'3 3.0
2014-Dec-16 14:30N 48°50' W 123°25'0 0.0
2014-Dec-16 06:05N 48°50' W 123°25'4 6.5
2014-Dec-16 05:24N 48°48' W 123°19'4 4.5
2014-Dec-16 04:33N 48°52' W 123°19'9 9.2
2014-Dec-16 03:32N 48°59' W 123°10'2 1.9
2014-Dec-16 02:33N 49°00' W 123°08'1110.5
2014-Dec-16 01:32N 48°53' W 123°19'4 2.8
2014-Dec-16 00:16N 48°49' W 123°20'1 0.4
2014-Dec-15 20:33N 48°48' W 123°19'4 3.6
2014-Dec-15 19:30N 48°52' W 123°21'8 8.2
2014-Dec-15 18:33N 48°57' W 123°13'5 4.6
2014-Dec-15 17:33N 49°00' W 123°08'10 9.9
2014-Dec-15 16:34N 48°53' W 123°18'3 3.1
2014-Dec-15 15:27N 48°50' W 123°20'3 3.3
2014-Dec-15 14:31N 48°50' W 123°25'3 0.4
2014-Dec-15 06:30N 48°52' W 123°20'1212.5
2014-Dec-15 05:33N 49°00' W 123°08'9 9.2
2014-Dec-15 04:34N 48°53' W 123°17'2 1.5
2014-Dec-15 03:33N 48°52' W 123°18'1110.7
2014-Dec-15 02:33N 49°00' W 123°08'4 4.4
2014-Dec-15 01:33N 48°57' W 123°12'8 7.7
2014-Dec-15 00:33N 48°52' W 123°20'4 1.2
2014-Dec-14 21:32N 48°48' W 123°19'4 3.8
2014-Dec-14 20:32N 48°51' W 123°21'8 8.7
2014-Dec-14 19:33N 48°58' W 123°12'4 3.9
2014-Dec-14 18:33N 49°00' W 123°08'10 9.7
2014-Dec-14 17:34N 48°53' W 123°18'3 2.5
2014-Dec-14 16:24N 48°51' W 123°20'3 3.6
2014-Dec-14 15:30N 48°50' W 123°25'3 0.3
2014-Dec-14 06:29N 48°51' W 123°21'3 3.6
2014-Dec-14 05:33N 48°53' W 123°17'9 9.5
2014-Dec-14 04:34N 49°00' W 123°08'0 0.0
2014-Dec-14 03:25N 49°00' W 123°08'0 0.0
2014-Dec-14 02:34N 49°00' W 123°08'1110.6
2014-Dec-14 01:33N 48°53' W 123°19'4 4.1
2014-Dec-14 00:32N 48°48' W 123°20'4 1.3
2014-Dec-13 21:26N 48°51' W 123°25'1213.9
2014-Dec-13 20:33N 48°58' W 123°11'0 0.2
2014-Dec-13 19:33N 48°58' W 123°11'9 8.9
2014-Dec-13 18:32N 48°51' W 123°20'2 2.0
2014-Dec-13 17:33N 48°53' W 123°19'1110.6
2014-Dec-13 16:33N 49°00' W 123°08'4 4.3
2014-Dec-13 15:33N 48°57' W 123°12'11 1.2
2014-Dec-13 06:08N 48°50' W 123°25'5 6.3
2014-Dec-13 05:25N 48°48' W 123°20'5 5.6
2014-Dec-13 04:34N 48°53' W 123°19'9 9.4
2014-Dec-13 03:33N 48°60' W 123°09'1 0.8
2014-Dec-13 02:34N 49°00' W 123°08'1010.3
2014-Dec-13 01:33N 48°53' W 123°19'2 1.8
2014-Dec-13 00:28N 48°51' W 123°20'3 3.7
2014-Dec-12 23:32N 48°50' W 123°25'4 1.5
2014-Dec-12 20:30N 48°48' W 123°19'4 4.0
2014-Dec-12 19:33N 48°52' W 123°19'10 9.5
2014-Dec-12 18:33N 48°59' W 123°09'2 1.6
2014-Dec-12 17:33N 49°00' W 123°08'10 9.9
2014-Dec-12 16:33N 48°53' W 123°18'3 2.3
2014-Dec-12 15:28N 48°51' W 123°20'4 3.7
2014-Dec-12 14:27N 48°50' W 123°25'0 0.0
2014-Dec-12 06:23N 48°50' W 123°25'3 3.6
2014-Dec-12 05:31N 48°50' W 123°20'3 2.7
2014-Dec-12 04:34N 48°53' W 123°19'9 9.3
2014-Dec-12 03:33N 48°60' W 123°10'1 1.3
2014-Dec-12 02:34N 49°00' W 123°08'1110.5
2014-Dec-12 01:33N 48°53' W 123°19'3 2.6
2014-Dec-12 00:31N 48°50' W 123°20'2 0.6
2014-Dec-11 20:32N 48°48' W 123°19'  

Dump ship's entire track history